sensor_id;sensor_type;location;lat;lon;timestamp;P1;durP1;ratioP1;P2;durP2;ratioP2
17812;SDS011;9030;50.792;8.320;2022-09-13T00:01:05;17.90;;;14.20;;
17812;SDS011;9030;50.792;8.320;2022-09-13T00:03:33;16.17;;;12.75;;
17812;SDS011;9030;50.792;8.320;2022-09-13T00:06:05;15.90;;;12.80;;
17812;SDS011;9030;50.792;8.320;2022-09-13T00:08:33;17.50;;;15.57;;
17812;SDS011;9030;50.792;8.320;2022-09-13T00:11:00;14.27;;;11.65;;
17812;SDS011;9030;50.792;8.320;2022-09-13T00:13:27;18.88;;;15.45;;
17812;SDS011;9030;50.792;8.320;2022-09-13T00:15:53;17.80;;;14.68;;
17812;SDS011;9030;50.792;8.320;2022-09-13T00:18:20;19.63;;;16.60;;
17812;SDS011;9030;50.792;8.320;2022-09-13T00:20:48;19.47;;;16.53;;
17812;SDS011;9030;50.792;8.320;2022-09-13T00:23:15;18.63;;;15.30;;
17812;SDS011;9030;50.792;8.320;2022-09-13T00:25:41;19.13;;;12.50;;
17812;SDS011;9030;50.792;8.320;2022-09-13T00:28:08;13.50;;;12.10;;
17812;SDS011;9030;50.792;8.320;2022-09-13T00:30:35;16.00;;;13.30;;
17812;SDS011;9030;50.792;8.320;2022-09-13T00:33:01;16.27;;;13.10;;
17812;SDS011;9030;50.792;8.320;2022-09-13T00:35:28;15.57;;;12.73;;
17812;SDS011;9030;50.792;8.320;2022-09-13T00:37:59;18.40;;;15.15;;
17812;SDS011;9030;50.792;8.320;2022-09-13T00:40:26;18.73;;;15.70;;
17812;SDS011;9030;50.792;8.320;2022-09-13T00:42:54;16.05;;;13.52;;
17812;SDS011;9030;50.792;8.320;2022-09-13T00:45:21;17.97;;;16.10;;
17812;SDS011;9030;50.792;8.320;2022-09-13T00:47:48;18.40;;;15.07;;
17812;SDS011;9030;50.792;8.320;2022-09-13T00:50:20;15.27;;;12.37;;
17812;SDS011;9030;50.792;8.320;2022-09-13T00:52:50;15.23;;;9.97;;
17812;SDS011;9030;50.792;8.320;2022-09-13T00:55:23;16.67;;;13.10;;
17812;SDS011;9030;50.792;8.320;2022-09-13T00:57:52;16.87;;;13.33;;
17812;SDS011;9030;50.792;8.320;2022-09-13T01:00:24;15.17;;;13.07;;
17812;SDS011;9030;50.792;8.320;2022-09-13T01:02:52;13.73;;;11.33;;
17812;SDS011;9030;50.792;8.320;2022-09-13T01:05:23;14.40;;;12.52;;
17812;SDS011;9030;50.792;8.320;2022-09-13T01:07:55;15.40;;;13.43;;
17812;SDS011;9030;50.792;8.320;2022-09-13T01:10:25;17.45;;;14.27;;
17812;SDS011;9030;50.792;8.320;2022-09-13T01:12:53;19.07;;;14.27;;
17812;SDS011;9030;50.792;8.320;2022-09-13T01:15:24;20.90;;;14.77;;
17812;SDS011;9030;50.792;8.320;2022-09-13T01:17:51;13.83;;;11.23;;
17812;SDS011;9030;50.792;8.320;2022-09-13T01:20:20;19.02;;;13.90;;
17812;SDS011;9030;50.792;8.320;2022-09-13T01:23:01;18.90;;;14.17;;
17812;SDS011;9030;50.792;8.320;2022-09-13T01:25:55;20.17;;;15.30;;
17812;SDS011;9030;50.792;8.320;2022-09-13T01:28:57;16.27;;;14.53;;
17812;SDS011;9030;50.792;8.320;2022-09-13T01:31:47;17.83;;;16.00;;
17812;SDS011;9030;50.792;8.320;2022-09-13T01:34:22;18.10;;;15.50;;
17812;SDS011;9030;50.792;8.320;2022-09-13T01:37:05;21.20;;;16.53;;
17812;SDS011;9030;50.792;8.320;2022-09-13T01:40:04;19.83;;;17.20;;
17812;SDS011;9030;50.792;8.320;2022-09-13T01:42:45;19.97;;;17.87;;
17812;SDS011;9030;50.792;8.320;2022-09-13T01:45:20;16.80;;;12.43;;
17812;SDS011;9030;50.792;8.320;2022-09-13T01:47:54;14.93;;;12.87;;
17812;SDS011;9030;50.792;8.320;2022-09-13T01:50:26;19.43;;;15.80;;
17812;SDS011;9030;50.792;8.320;2022-09-13T01:53:02;19.03;;;16.93;;
17812;SDS011;9030;50.792;8.320;2022-09-13T01:55:33;20.87;;;18.67;;
17812;SDS011;9030;50.792;8.320;2022-09-13T01:58:15;21.08;;;18.88;;
17812;SDS011;9030;50.792;8.320;2022-09-13T02:00:47;20.93;;;18.37;;
17812;SDS011;9030;50.792;8.320;2022-09-13T02:03:21;20.73;;;17.43;;
17812;SDS011;9030;50.792;8.320;2022-09-13T02:05:54;18.97;;;16.97;;
17812;SDS011;9030;50.792;8.320;2022-09-13T02:08:25;18.67;;;15.48;;
17812;SDS011;9030;50.792;8.320;2022-09-13T02:11:03;19.70;;;15.00;;
17812;SDS011;9030;50.792;8.320;2022-09-13T02:13:35;14.67;;;12.67;;
17812;SDS011;9030;50.792;8.320;2022-09-13T02:16:07;14.38;;;12.75;;
17812;SDS011;9030;50.792;8.320;2022-09-13T02:18:39;17.02;;;12.02;;
17812;SDS011;9030;50.792;8.320;2022-09-13T02:21:08;16.88;;;12.80;;
17812;SDS011;9030;50.792;8.320;2022-09-13T02:23:40;16.25;;;13.02;;
17812;SDS011;9030;50.792;8.320;2022-09-13T02:26:12;14.52;;;12.43;;
17812;SDS011;9030;50.792;8.320;2022-09-13T02:28:41;19.02;;;14.60;;
17812;SDS011;9030;50.792;8.320;2022-09-13T02:31:13;15.82;;;12.85;;
17812;SDS011;9030;50.792;8.320;2022-09-13T02:33:46;16.17;;;14.45;;
17812;SDS011;9030;50.792;8.320;2022-09-13T02:36:20;16.70;;;13.85;;
17812;SDS011;9030;50.792;8.320;2022-09-13T02:38:49;19.08;;;15.07;;
17812;SDS011;9030;50.792;8.320;2022-09-13T02:41:20;16.30;;;14.25;;
17812;SDS011;9030;50.792;8.320;2022-09-13T02:43:52;19.23;;;15.32;;
17812;SDS011;9030;50.792;8.320;2022-09-13T02:46:29;14.75;;;12.95;;
17812;SDS011;9030;50.792;8.320;2022-09-13T02:49:09;16.70;;;15.00;;
17812;SDS011;9030;50.792;8.320;2022-09-13T02:51:43;15.63;;;14.00;;
17812;SDS011;9030;50.792;8.320;2022-09-13T02:54:22;13.77;;;10.70;;
17812;SDS011;9030;50.792;8.320;2022-09-13T02:56:55;15.32;;;12.02;;
17812;SDS011;9030;50.792;8.320;2022-09-13T02:59:26;15.70;;;11.02;;
17812;SDS011;9030;50.792;8.320;2022-09-13T03:01:53;16.20;;;12.13;;
17812;SDS011;9030;50.792;8.320;2022-09-13T03:04:25;16.85;;;12.13;;
17812;SDS011;9030;50.792;8.320;2022-09-13T03:06:53;16.20;;;14.48;;
17812;SDS011;9030;50.792;8.320;2022-09-13T03:09:19;16.17;;;12.68;;
17812;SDS011;9030;50.792;8.320;2022-09-13T03:11:54;19.08;;;14.75;;
17812;SDS011;9030;50.792;8.320;2022-09-13T03:14:42;18.20;;;13.40;;
17812;SDS011;9030;50.792;8.320;2022-09-13T03:17:16;14.88;;;11.07;;
17812;SDS011;9030;50.792;8.320;2022-09-13T03:19:55;15.30;;;12.27;;
17812;SDS011;9030;50.792;8.320;2022-09-13T03:22:39;14.95;;;11.57;;
17812;SDS011;9030;50.792;8.320;2022-09-13T03:25:26;13.45;;;10.68;;
17812;SDS011;9030;50.792;8.320;2022-09-13T03:28:05;13.15;;;9.77;;
17812;SDS011;9030;50.792;8.320;2022-09-13T03:30:43;13.65;;;11.57;;
17812;SDS011;9030;50.792;8.320;2022-09-13T03:33:17;13.02;;;10.38;;
17812;SDS011;9030;50.792;8.320;2022-09-13T03:35:53;13.85;;;10.55;;
17812;SDS011;9030;50.792;8.320;2022-09-13T03:38:25;13.35;;;11.95;;
17812;SDS011;9030;50.792;8.320;2022-09-13T03:40:59;14.38;;;12.02;;
17812;SDS011;9030;50.792;8.320;2022-09-13T03:43:31;15.40;;;12.80;;
17812;SDS011;9030;50.792;8.320;2022-09-13T03:46:02;15.77;;;13.23;;
17812;SDS011;9030;50.792;8.320;2022-09-13T03:48:31;19.77;;;17.80;;
17812;SDS011;9030;50.792;8.320;2022-09-13T03:51:01;20.83;;;14.85;;
17812;SDS011;9030;50.792;8.320;2022-09-13T03:53:29;14.05;;;12.52;;
17812;SDS011;9030;50.792;8.320;2022-09-13T03:55:58;14.25;;;11.75;;
17812;SDS011;9030;50.792;8.320;2022-09-13T03:58:25;17.40;;;13.13;;
17812;SDS011;9030;50.792;8.320;2022-09-13T04:00:52;14.00;;;12.27;;
17812;SDS011;9030;50.792;8.320;2022-09-13T04:03:19;13.93;;;12.43;;
17812;SDS011;9030;50.792;8.320;2022-09-13T04:05:46;16.23;;;13.07;;
17812;SDS011;9030;50.792;8.320;2022-09-13T04:08:15;15.40;;;11.88;;
17812;SDS011;9030;50.792;8.320;2022-09-13T04:10:42;18.52;;;12.13;;
17812;SDS011;9030;50.792;8.320;2022-09-13T04:13:08;15.93;;;12.70;;
17812;SDS011;9030;50.792;8.320;2022-09-13T04:15:35;16.13;;;11.60;;
17812;SDS011;9030;50.792;8.320;2022-09-13T04:18:02;12.95;;;11.30;;
17812;SDS011;9030;50.792;8.320;2022-09-13T04:20:29;14.02;;;11.70;;
17812;SDS011;9030;50.792;8.320;2022-09-13T04:22:56;14.77;;;11.60;;
17812;SDS011;9030;50.792;8.320;2022-09-13T04:25:24;15.63;;;12.25;;
17812;SDS011;9030;50.792;8.320;2022-09-13T04:27:52;18.55;;;12.68;;
17812;SDS011;9030;50.792;8.320;2022-09-13T04:30:19;12.65;;;10.57;;
17812;SDS011;9030;50.792;8.320;2022-09-13T04:32:47;13.50;;;10.60;;
17812;SDS011;9030;50.792;8.320;2022-09-13T04:35:13;15.63;;;12.25;;
17812;SDS011;9030;50.792;8.320;2022-09-13T04:37:42;16.30;;;12.45;;
17812;SDS011;9030;50.792;8.320;2022-09-13T04:40:09;13.32;;;11.40;;
17812;SDS011;9030;50.792;8.320;2022-09-13T04:42:37;14.07;;;11.52;;
17812;SDS011;9030;50.792;8.320;2022-09-13T04:45:04;17.13;;;11.95;;
17812;SDS011;9030;50.792;8.320;2022-09-13T04:47:32;13.65;;;10.93;;
17812;SDS011;9030;50.792;8.320;2022-09-13T04:49:58;14.50;;;10.93;;
17812;SDS011;9030;50.792;8.320;2022-09-13T04:52:25;16.92;;;13.23;;
17812;SDS011;9030;50.792;8.320;2022-09-13T04:54:52;15.57;;;12.43;;
17812;SDS011;9030;50.792;8.320;2022-09-13T04:57:19;15.50;;;12.48;;
17812;SDS011;9030;50.792;8.320;2022-09-13T04:59:47;16.63;;;12.35;;
17812;SDS011;9030;50.792;8.320;2022-09-13T05:02:13;14.05;;;11.93;;
17812;SDS011;9030;50.792;8.320;2022-09-13T05:04:40;13.55;;;11.25;;
17812;SDS011;9030;50.792;8.320;2022-09-13T05:07:07;13.63;;;11.20;;
17812;SDS011;9030;50.792;8.320;2022-09-13T05:09:33;12.95;;;10.80;;
17812;SDS011;9030;50.792;8.320;2022-09-13T05:12:00;16.05;;;11.63;;
17812;SDS011;9030;50.792;8.320;2022-09-13T05:14:27;15.75;;;11.88;;
17812;SDS011;9030;50.792;8.320;2022-09-13T05:16:56;15.75;;;12.68;;
17812;SDS011;9030;50.792;8.320;2022-09-13T05:19:23;15.13;;;12.55;;
17812;SDS011;9030;50.792;8.320;2022-09-13T05:21:50;15.80;;;14.10;;
17812;SDS011;9030;50.792;8.320;2022-09-13T05:24:16;14.07;;;12.40;;
17812;SDS011;9030;50.792;8.320;2022-09-13T05:26:43;15.70;;;11.30;;
17812;SDS011;9030;50.792;8.320;2022-09-13T05:29:10;13.68;;;11.65;;
17812;SDS011;9030;50.792;8.320;2022-09-13T05:31:37;15.15;;;12.77;;
17812;SDS011;9030;50.792;8.320;2022-09-13T05:34:07;15.45;;;13.35;;
17812;SDS011;9030;50.792;8.320;2022-09-13T05:36:36;14.30;;;12.80;;
17812;SDS011;9030;50.792;8.320;2022-09-13T05:39:03;20.67;;;16.35;;
17812;SDS011;9030;50.792;8.320;2022-09-13T05:41:31;22.40;;;19.88;;
17812;SDS011;9030;50.792;8.320;2022-09-13T05:43:58;19.10;;;16.30;;
17812;SDS011;9030;50.792;8.320;2022-09-13T05:46:25;24.20;;;17.15;;
17812;SDS011;9030;50.792;8.320;2022-09-13T05:48:52;19.08;;;17.17;;
17812;SDS011;9030;50.792;8.320;2022-09-13T05:51:24;18.27;;;16.38;;
17812;SDS011;9030;50.792;8.320;2022-09-13T05:53:52;14.35;;;12.77;;
17812;SDS011;9030;50.792;8.320;2022-09-13T05:56:20;14.80;;;13.15;;
17812;SDS011;9030;50.792;8.320;2022-09-13T05:58:49;15.65;;;13.57;;
17812;SDS011;9030;50.792;8.320;2022-09-13T06:01:17;15.82;;;14.13;;
17812;SDS011;9030;50.792;8.320;2022-09-13T06:03:46;15.60;;;13.43;;
17812;SDS011;9030;50.792;8.320;2022-09-13T06:06:13;17.23;;;15.50;;
17812;SDS011;9030;50.792;8.320;2022-09-13T06:08:41;18.88;;;14.13;;
17812;SDS011;9030;50.792;8.320;2022-09-13T06:11:10;14.98;;;13.35;;
17812;SDS011;9030;50.792;8.320;2022-09-13T06:13:38;15.23;;;13.60;;
17812;SDS011;9030;50.792;8.320;2022-09-13T06:16:06;14.40;;;12.75;;
17812;SDS011;9030;50.792;8.320;2022-09-13T06:18:35;14.63;;;13.00;;
17812;SDS011;9030;50.792;8.320;2022-09-13T06:21:03;14.68;;;13.10;;
17812;SDS011;9030;50.792;8.320;2022-09-13T06:23:33;14.75;;;12.52;;
17812;SDS011;9030;50.792;8.320;2022-09-13T06:26:03;16.55;;;12.65;;
17812;SDS011;9030;50.792;8.320;2022-09-13T06:28:31;19.90;;;16.77;;
17812;SDS011;9030;50.792;8.320;2022-09-13T06:30:58;18.77;;;16.88;;
17812;SDS011;9030;50.792;8.320;2022-09-13T06:33:26;17.67;;;15.82;;
17812;SDS011;9030;50.792;8.320;2022-09-13T06:35:53;19.17;;;15.30;;
17812;SDS011;9030;50.792;8.320;2022-09-13T06:38:19;16.83;;;14.73;;
17812;SDS011;9030;50.792;8.320;2022-09-13T06:40:46;16.55;;;14.73;;
17812;SDS011;9030;50.792;8.320;2022-09-13T06:43:14;16.20;;;14.13;;
17812;SDS011;9030;50.792;8.320;2022-09-13T06:45:41;19.73;;;17.48;;
17812;SDS011;9030;50.792;8.320;2022-09-13T06:48:08;16.63;;;14.90;;
17812;SDS011;9030;50.792;8.320;2022-09-13T06:50:34;15.77;;;14.13;;
17812;SDS011;9030;50.792;8.320;2022-09-13T06:53:01;15.93;;;13.75;;
17812;SDS011;9030;50.792;8.320;2022-09-13T06:55:28;15.82;;;13.15;;
17812;SDS011;9030;50.792;8.320;2022-09-13T06:57:55;19.50;;;16.10;;
17812;SDS011;9030;50.792;8.320;2022-09-13T07:00:24;18.17;;;15.70;;
17812;SDS011;9030;50.792;8.320;2022-09-13T07:02:51;20.30;;;18.30;;
17812;SDS011;9030;50.792;8.320;2022-09-13T07:05:17;15.00;;;13.40;;
17812;SDS011;9030;50.792;8.320;2022-09-13T07:07:45;14.85;;;13.25;;
17812;SDS011;9030;50.792;8.320;2022-09-13T07:10:12;16.20;;;14.55;;
17812;SDS011;9030;50.792;8.320;2022-09-13T07:12:39;18.55;;;13.98;;
17812;SDS011;9030;50.792;8.320;2022-09-13T07:15:07;16.60;;;13.48;;
17812;SDS011;9030;50.792;8.320;2022-09-13T07:17:35;17.15;;;12.95;;
17812;SDS011;9030;50.792;8.320;2022-09-13T07:20:02;15.48;;;12.77;;
17812;SDS011;9030;50.792;8.320;2022-09-13T07:22:31;15.20;;;11.68;;
17812;SDS011;9030;50.792;8.320;2022-09-13T07:24:57;16.73;;;12.85;;
17812;SDS011;9030;50.792;8.320;2022-09-13T07:27:25;15.75;;;13.52;;
17812;SDS011;9030;50.792;8.320;2022-09-13T07:29:52;13.90;;;12.40;;
17812;SDS011;9030;50.792;8.320;2022-09-13T07:32:19;15.05;;;13.38;;
17812;SDS011;9030;50.792;8.320;2022-09-13T07:34:48;14.30;;;12.80;;
17812;SDS011;9030;50.792;8.320;2022-09-13T07:37:15;17.38;;;14.13;;
17812;SDS011;9030;50.792;8.320;2022-09-13T07:39:42;16.42;;;14.73;;
17812;SDS011;9030;50.792;8.320;2022-09-13T07:42:08;17.00;;;14.23;;
17812;SDS011;9030;50.792;8.320;2022-09-13T07:44:35;16.52;;;13.88;;
17812;SDS011;9030;50.792;8.320;2022-09-13T07:47:02;16.73;;;14.98;;
17812;SDS011;9030;50.792;8.320;2022-09-13T07:49:29;19.63;;;17.42;;
17812;SDS011;9030;50.792;8.320;2022-09-13T07:51:57;19.30;;;16.95;;
17812;SDS011;9030;50.792;8.320;2022-09-13T07:54:24;19.10;;;15.13;;
17812;SDS011;9030;50.792;8.320;2022-09-13T07:56:50;17.25;;;15.38;;
17812;SDS011;9030;50.792;8.320;2022-09-13T07:59:17;16.05;;;13.88;;
17812;SDS011;9030;50.792;8.320;2022-09-13T08:01:45;17.50;;;14.18;;
17812;SDS011;9030;50.792;8.320;2022-09-13T08:04:13;19.00;;;12.13;;
17812;SDS011;9030;50.792;8.320;2022-09-13T08:06:42;20.95;;;13.40;;
17812;SDS011;9030;50.792;8.320;2022-09-13T08:09:11;16.38;;;13.57;;
17812;SDS011;9030;50.792;8.320;2022-09-13T08:11:40;13.18;;;11.77;;
17812;SDS011;9030;50.792;8.320;2022-09-13T08:14:08;16.52;;;12.60;;
17812;SDS011;9030;50.792;8.320;2022-09-13T08:16:36;14.82;;;12.65;;
17812;SDS011;9030;50.792;8.320;2022-09-13T08:19:04;18.00;;;11.35;;
17812;SDS011;9030;50.792;8.320;2022-09-13T08:21:33;14.20;;;12.15;;
17812;SDS011;9030;50.792;8.320;2022-09-13T08:24:02;14.70;;;11.05;;
17812;SDS011;9030;50.792;8.320;2022-09-13T08:26:31;19.52;;;11.55;;
17812;SDS011;9030;50.792;8.320;2022-09-13T08:29:00;12.75;;;10.55;;
17812;SDS011;9030;50.792;8.320;2022-09-13T08:31:29;14.88;;;11.80;;
17812;SDS011;9030;50.792;8.320;2022-09-13T08:33:56;13.02;;;9.13;;
17812;SDS011;9030;50.792;8.320;2022-09-13T08:36:23;13.38;;;10.45;;
17812;SDS011;9030;50.792;8.320;2022-09-13T08:38:51;15.80;;;10.70;;
17812;SDS011;9030;50.792;8.320;2022-09-13T08:44:23;12.02;;;8.57;;
17812;SDS011;9030;50.792;8.320;2022-09-13T08:46:54;13.75;;;9.48;;
17812;SDS011;9030;50.792;8.320;2022-09-13T08:49:25;12.68;;;9.10;;
17812;SDS011;9030;50.792;8.320;2022-09-13T08:51:55;13.73;;;9.02;;
17812;SDS011;9030;50.792;8.320;2022-09-13T08:54:25;11.13;;;7.78;;
17812;SDS011;9030;50.792;8.320;2022-09-13T08:56:54;13.35;;;9.48;;
17812;SDS011;9030;50.792;8.320;2022-09-13T08:59:33;11.32;;;8.70;;
17812;SDS011;9030;50.792;8.320;2022-09-13T09:02:26;12.57;;;7.68;;
17812;SDS011;9030;50.792;8.320;2022-09-13T09:05:11;13.18;;;9.82;;
17812;SDS011;9030;50.792;8.320;2022-09-13T09:07:43;13.88;;;7.78;;
17812;SDS011;9030;50.792;8.320;2022-09-13T09:10:13;11.48;;;7.40;;
17812;SDS011;9030;50.792;8.320;2022-09-13T09:12:42;10.63;;;7.15;;
17812;SDS011;9030;50.792;8.320;2022-09-13T09:15:14;8.77;;;6.53;;
17812;SDS011;9030;50.792;8.320;2022-09-13T09:17:45;9.52;;;6.47;;
17812;SDS011;9030;50.792;8.320;2022-09-13T09:20:22;9.25;;;5.85;;
17812;SDS011;9030;50.792;8.320;2022-09-13T09:22:52;12.05;;;7.38;;
17812;SDS011;9030;50.792;8.320;2022-09-13T09:25:19;9.52;;;5.93;;
17812;SDS011;9030;50.792;8.320;2022-09-13T09:27:48;7.78;;;5.20;;
17812;SDS011;9030;50.792;8.320;2022-09-13T09:30:16;11.50;;;6.43;;
17812;SDS011;9030;50.792;8.320;2022-09-13T09:32:49;8.73;;;5.72;;
17812;SDS011;9030;50.792;8.320;2022-09-13T09:35:37;8.77;;;5.10;;
17812;SDS011;9030;50.792;8.320;2022-09-13T09:38:18;8.43;;;5.35;;
17812;SDS011;9030;50.792;8.320;2022-09-13T09:40:57;10.75;;;5.93;;
17812;SDS011;9030;50.792;8.320;2022-09-13T09:43:28;6.22;;;4.72;;
17812;SDS011;9030;50.792;8.320;2022-09-13T09:46:00;11.32;;;6.00;;
17812;SDS011;9030;50.792;8.320;2022-09-13T09:48:33;11.77;;;5.65;;
17812;SDS011;9030;50.792;8.320;2022-09-13T09:51:04;8.55;;;5.30;;
17812;SDS011;9030;50.792;8.320;2022-09-13T09:53:36;10.95;;;4.45;;
17812;SDS011;9030;50.792;8.320;2022-09-13T09:56:14;8.15;;;4.78;;
17812;SDS011;9030;50.792;8.320;2022-09-13T09:58:47;12.32;;;4.28;;
17812;SDS011;9030;50.792;8.320;2022-09-13T10:01:17;9.55;;;5.18;;
17812;SDS011;9030;50.792;8.320;2022-09-13T10:03:49;9.63;;;4.72;;
17812;SDS011;9030;50.792;8.320;2022-09-13T10:06:19;11.85;;;4.20;;
17812;SDS011;9030;50.792;8.320;2022-09-13T10:08:53;5.82;;;4.35;;
17812;SDS011;9030;50.792;8.320;2022-09-13T10:11:23;5.55;;;3.55;;
17812;SDS011;9030;50.792;8.320;2022-09-13T10:14:02;8.57;;;3.92;;
17812;SDS011;9030;50.792;8.320;2022-09-13T10:16:31;8.02;;;3.45;;
17812;SDS011;9030;50.792;8.320;2022-09-13T10:21:58;7.80;;;4.50;;
17812;SDS011;9030;50.792;8.320;2022-09-13T10:24:26;4.85;;;3.72;;
17812;SDS011;9030;50.792;8.320;2022-09-13T10:26:54;9.10;;;4.30;;
17812;SDS011;9030;50.792;8.320;2022-09-13T10:29:21;10.32;;;3.78;;
17812;SDS011;9030;50.792;8.320;2022-09-13T10:31:50;8.88;;;3.97;;
17812;SDS011;9030;50.792;8.320;2022-09-13T10:34:20;7.22;;;3.33;;
17812;SDS011;9030;50.792;8.320;2022-09-13T10:36:51;9.65;;;4.22;;
17812;SDS011;9030;50.792;8.320;2022-09-13T10:39:21;6.15;;;3.72;;
17812;SDS011;9030;50.792;8.320;2022-09-13T10:41:50;8.82;;;3.95;;
17812;SDS011;9030;50.792;8.320;2022-09-13T10:44:22;5.90;;;3.22;;
17812;SDS011;9030;50.792;8.320;2022-09-13T10:46:59;9.45;;;3.58;;
17812;SDS011;9030;50.792;8.320;2022-09-13T10:49:40;7.57;;;3.90;;
17812;SDS011;9030;50.792;8.320;2022-09-13T10:52:24;5.40;;;2.97;;
17812;SDS011;9030;50.792;8.320;2022-09-13T10:54:52;5.18;;;2.92;;
17812;SDS011;9030;50.792;8.320;2022-09-13T10:57:32;6.82;;;2.83;;
17812;SDS011;9030;50.792;8.320;2022-09-13T11:00:00;6.82;;;3.40;;
17812;SDS011;9030;50.792;8.320;2022-09-13T11:02:45;7.13;;;3.17;;
17812;SDS011;9030;50.792;8.320;2022-09-13T11:05:20;7.80;;;2.42;;
17812;SDS011;9030;50.792;8.320;2022-09-13T11:10:46;6.30;;;2.50;;
17812;SDS011;9030;50.792;8.320;2022-09-13T11:13:21;7.95;;;2.47;;
17812;SDS011;9030;50.792;8.320;2022-09-13T11:15:56;5.43;;;2.75;;
17812;SDS011;9030;50.792;8.320;2022-09-13T11:18:44;4.90;;;2.55;;
17812;SDS011;9030;50.792;8.320;2022-09-13T11:21:21;4.50;;;1.98;;
17812;SDS011;9030;50.792;8.320;2022-09-13T11:24:05;7.32;;;2.40;;
17812;SDS011;9030;50.792;8.320;2022-09-13T11:26:45;4.90;;;1.95;;
17812;SDS011;9030;50.792;8.320;2022-09-13T11:29:27;7.22;;;1.98;;
17812;SDS011;9030;50.792;8.320;2022-09-13T11:32:06;5.28;;;1.83;;
17812;SDS011;9030;50.792;8.320;2022-09-13T11:34:51;2.55;;;1.80;;
17812;SDS011;9030;50.792;8.320;2022-09-13T11:37:36;2.85;;;1.58;;
17812;SDS011;9030;50.792;8.320;2022-09-13T11:40:21;5.95;;;1.98;;
17812;SDS011;9030;50.792;8.320;2022-09-13T11:42:58;2.33;;;1.73;;
17812;SDS011;9030;50.792;8.320;2022-09-13T11:45:41;7.30;;;2.08;;
17812;SDS011;9030;50.792;8.320;2022-09-13T11:48:18;5.13;;;1.98;;
17812;SDS011;9030;50.792;8.320;2022-09-13T11:50:58;6.13;;;2.25;;
17812;SDS011;9030;50.792;8.320;2022-09-13T11:53:42;6.68;;;2.22;;
17812;SDS011;9030;50.792;8.320;2022-09-13T11:56:20;4.97;;;2.13;;
17812;SDS011;9030;50.792;8.320;2022-09-13T11:58:52;2.60;;;1.70;;
17812;SDS011;9030;50.792;8.320;2022-09-13T12:01:24;6.45;;;2.47;;
17812;SDS011;9030;50.792;8.320;2022-09-13T12:03:55;3.85;;;1.98;;
17812;SDS011;9030;50.792;8.320;2022-09-13T12:06:28;3.70;;;1.60;;
17812;SDS011;9030;50.792;8.320;2022-09-13T12:08:58;8.07;;;1.90;;
17812;SDS011;9030;50.792;8.320;2022-09-13T12:11:29;4.28;;;1.80;;
17812;SDS011;9030;50.792;8.320;2022-09-13T12:14:00;4.75;;;2.15;;
17812;SDS011;9030;50.792;8.320;2022-09-13T12:16:31;3.47;;;1.58;;
17812;SDS011;9030;50.792;8.320;2022-09-13T12:19:00;3.38;;;1.80;;
17812;SDS011;9030;50.792;8.320;2022-09-13T12:21:34;5.53;;;2.13;;
17812;SDS011;9030;50.792;8.320;2022-09-13T12:24:05;2.80;;;1.73;;
17812;SDS011;9030;50.792;8.320;2022-09-13T12:26:38;4.18;;;1.67;;
17812;SDS011;9030;50.792;8.320;2022-09-13T12:29:12;3.90;;;1.70;;
17812;SDS011;9030;50.792;8.320;2022-09-13T12:31:41;4.28;;;1.73;;
17812;SDS011;9030;50.792;8.320;2022-09-13T12:34:08;2.05;;;1.50;;
17812;SDS011;9030;50.792;8.320;2022-09-13T12:42:58;5.78;;;1.92;;
17812;SDS011;9030;50.792;8.320;2022-09-13T12:45:59;3.78;;;1.95;;
17812;SDS011;9030;50.792;8.320;2022-09-13T12:48:53;5.70;;;1.95;;
17812;SDS011;9030;50.792;8.320;2022-09-13T12:51:37;4.47;;;1.52;;
17812;SDS011;9030;50.792;8.320;2022-09-13T12:54:25;4.43;;;1.65;;
17812;SDS011;9030;50.792;8.320;2022-09-13T12:57:14;3.85;;;1.80;;
17812;SDS011;9030;50.792;8.320;2022-09-13T13:03:00;6.00;;;1.85;;
17812;SDS011;9030;50.792;8.320;2022-09-13T13:05:36;4.43;;;1.98;;
17812;SDS011;9030;50.792;8.320;2022-09-13T13:08:07;6.80;;;2.10;;
17812;SDS011;9030;50.792;8.320;2022-09-13T13:11:03;5.03;;;2.20;;
17812;SDS011;9030;50.792;8.320;2022-09-13T13:13:33;3.50;;;1.63;;
17812;SDS011;9030;50.792;8.320;2022-09-13T13:16:03;4.90;;;2.10;;
17812;SDS011;9030;50.792;8.320;2022-09-13T13:18:48;3.65;;;2.30;;
17812;SDS011;9030;50.792;8.320;2022-09-13T13:33:15;3.35;;;1.73;;
17812;SDS011;9030;50.792;8.320;2022-09-13T13:35:44;6.03;;;1.50;;
17812;SDS011;9030;50.792;8.320;2022-09-13T13:50:17;2.05;;;1.63;;
17812;SDS011;9030;50.792;8.320;2022-09-13T13:52:51;4.35;;;1.80;;
17812;SDS011;9030;50.792;8.320;2022-09-13T13:55:29;4.22;;;1.80;;
17812;SDS011;9030;50.792;8.320;2022-09-13T13:58:26;4.07;;;1.73;;
17812;SDS011;9030;50.792;8.320;2022-09-13T14:01:00;6.68;;;1.88;;
17812;SDS011;9030;50.792;8.320;2022-09-13T14:03:33;3.60;;;1.73;;
17812;SDS011;9030;50.792;8.320;2022-09-13T14:06:16;5.03;;;1.42;;
17812;SDS011;9030;50.792;8.320;2022-09-13T14:08:54;3.15;;;1.38;;
17812;SDS011;9030;50.792;8.320;2022-09-13T14:11:33;5.13;;;2.17;;
17812;SDS011;9030;50.792;8.320;2022-09-13T14:14:14;3.80;;;1.33;;
17812;SDS011;9030;50.792;8.320;2022-09-13T14:16:56;1.63;;;1.20;;
17812;SDS011;9030;50.792;8.320;2022-09-13T14:19:49;4.57;;;1.58;;
17812;SDS011;9030;50.792;8.320;2022-09-13T14:22:19;4.18;;;1.75;;
17812;SDS011;9030;50.792;8.320;2022-09-13T14:24:48;9.95;;;1.98;;
17812;SDS011;9030;50.792;8.320;2022-09-13T14:27:16;7.30;;;2.90;;
17812;SDS011;9030;50.792;8.320;2022-09-13T14:29:45;4.70;;;2.30;;
17812;SDS011;9030;50.792;8.320;2022-09-13T14:32:15;6.07;;;1.50;;
17812;SDS011;9030;50.792;8.320;2022-09-13T14:34:56;4.30;;;1.45;;
17812;SDS011;9030;50.792;8.320;2022-09-13T14:37:26;3.50;;;1.50;;
17812;SDS011;9030;50.792;8.320;2022-09-13T14:39:57;3.88;;;1.67;;
17812;SDS011;9030;50.792;8.320;2022-09-13T14:42:25;4.70;;;1.40;;
17812;SDS011;9030;50.792;8.320;2022-09-13T14:45:02;5.10;;;1.30;;
17812;SDS011;9030;50.792;8.320;2022-09-13T14:47:30;2.90;;;1.52;;
17812;SDS011;9030;50.792;8.320;2022-09-13T14:50:02;3.25;;;1.55;;
17812;SDS011;9030;50.792;8.320;2022-09-13T14:52:33;3.45;;;1.70;;
17812;SDS011;9030;50.792;8.320;2022-09-13T14:55:04;4.13;;;1.40;;
17812;SDS011;9030;50.792;8.320;2022-09-13T14:57:35;3.70;;;1.52;;
17812;SDS011;9030;50.792;8.320;2022-09-13T15:00:05;2.58;;;1.63;;
17812;SDS011;9030;50.792;8.320;2022-09-13T15:02:42;1.45;;;1.23;;
17812;SDS011;9030;50.792;8.320;2022-09-13T15:05:15;5.88;;;1.63;;
17812;SDS011;9030;50.792;8.320;2022-09-13T15:07:44;1.92;;;1.40;;
17812;SDS011;9030;50.792;8.320;2022-09-13T15:10:19;3.30;;;1.65;;
17812;SDS011;9030;50.792;8.320;2022-09-13T15:12:49;2.00;;;1.45;;
17812;SDS011;9030;50.792;8.320;2022-09-13T15:15:22;3.58;;;1.75;;
17812;SDS011;9030;50.792;8.320;2022-09-13T15:17:58;1.80;;;1.02;;
17812;SDS011;9030;50.792;8.320;2022-09-13T15:20:28;1.73;;;1.45;;
17812;SDS011;9030;50.792;8.320;2022-09-13T15:22:56;5.45;;;1.60;;
17812;SDS011;9030;50.792;8.320;2022-09-13T15:25:25;1.70;;;1.60;;
17812;SDS011;9030;50.792;8.320;2022-09-13T15:27:53;2.45;;;1.30;;
17812;SDS011;9030;50.792;8.320;2022-09-13T15:30:22;3.67;;;1.40;;
17812;SDS011;9030;50.792;8.320;2022-09-13T15:33:02;3.15;;;1.50;;
17812;SDS011;9030;50.792;8.320;2022-09-13T15:35:44;3.45;;;1.88;;
17812;SDS011;9030;50.792;8.320;2022-09-13T15:38:25;4.25;;;2.10;;
17812;SDS011;9030;50.792;8.320;2022-09-13T15:40:59;5.28;;;1.92;;
17812;SDS011;9030;50.792;8.320;2022-09-13T15:43:27;4.05;;;1.67;;
17812;SDS011;9030;50.792;8.320;2022-09-13T15:45:55;1.98;;;1.13;;
17812;SDS011;9030;50.792;8.320;2022-09-13T15:48:24;7.10;;;1.70;;
17812;SDS011;9030;50.792;8.320;2022-09-13T15:53:44;3.38;;;1.60;;
17812;SDS011;9030;50.792;8.320;2022-09-13T15:56:13;4.93;;;2.03;;
17812;SDS011;9030;50.792;8.320;2022-09-13T15:58:42;4.95;;;1.60;;